Ater, Texas
Current Conditions -  °F | °C
As of 10:35 AM on Saturday 20 Dec 2014 (Local Time) from KGOP Reporting Station
Broken Clouds Broken Clouds  
Wind Chill: 48°   Ceiling: 1700
Heat Index: 48°   Visibility: 10mi
Dew Point: 43°   Wind: 0mph
Humidity: 82%   Direction: NA
Pressure: 30.28"   Gusts: NA
Location:  31.392°N, 97.7452°W
Report Text: KGOP 201635Z AUTO 00000KT 10SM BKN017 09/06 A3028 RMK AO2 PWINO
Loading
Personal Weather Stations






























Interactive Weather Map New forecast layout! Learn more

10-Day Weather Forecast

Advertisements
Track Severe Weather on mobile